Time;durP1;ratioP1;P1;durP2;ratioP2;P2;SDS_P1;SDS_P2;PMS_P1;PMS_P2;Temp;Humidity;BMP_temperature;BMP_pressure;BME280_temperature;BME280_humidity;BME280_pressure;Samples;Min_cycle;Max_cycle;Signal;HPM_P1;HPM_P2
2023/11/22 00:00:07;;;;;;;10.70;7.63;;;;;;;;;;5041077;28;20402;-87
2023/11/22 00:02:33;;;;;;;11.20;7.68;;;;;;;;;;5058744;28;20037;-87
2023/11/22 00:04:58;;;;;;;11.77;7.50;;;;;;;;;;5038387;28;20029;-87
2023/11/22 00:07:23;;;;;;;11.05;7.90;;;;;;;;;;5058640;28;20031;-87
2023/11/22 00:09:52;;;;;;;10.45;6.78;;;;;;;;;;5038627;28;20029;-88
2023/11/22 00:12:18;;;;;;;10.77;7.85;;;;;;;;;;5069359;28;20037;-87
2023/11/22 00:14:43;;;;;;;12.27;7.05;;;;;;;;;;5055191;28;20123;-87
2023/11/22 00:17:10;;;;;;;10.98;7.40;;;;;;;;;;5032941;28;20028;-87
2023/11/22 00:19:36;;;;;;;10.25;7.18;;;;;;;;;;5077708;28;20044;-87
2023/11/22 00:22:05;;;;;;;11.48;6.82;;;;;;;;;;5049218;28;20036;-87
2023/11/22 00:24:30;;;;;;;9.90;6.95;;;;;;;;;;5047625;28;20033;-87
2023/11/22 00:26:56;;;;;;;11.30;7.28;;;;;;;;;;5052545;28;20039;-87
2023/11/22 00:29:23;;;;;;;10.50;7.07;;;;;;;;;;5049324;28;20028;-87
2023/11/22 00:31:48;;;;;;;11.10;7.47;;;;;;;;;;5041404;28;20028;-87
2023/11/22 00:34:14;;;;;;;10.77;7.57;;;;;;;;;;5037788;28;20375;-86
2023/11/22 00:36:40;;;;;;;10.15;7.00;;;;;;;;;;5045938;28;20035;-86
2023/11/22 00:39:05;;;;;;;11.50;7.47;;;;;;;;;;5098036;27;20198;-85
2023/11/22 00:41:32;;;;;;;11.73;7.80;;;;;;;;;;5050938;28;20041;-87
2023/11/22 00:43:57;;;;;;;11.48;7.60;;;;;;;;;;5068922;28;20029;-87
2023/11/22 00:46:22;;;;;;;11.40;7.40;;;;;;;;;;5049142;28;21591;-87
2023/11/22 00:48:48;;;;;;;11.35;7.70;;;;;;;;;;5051084;28;20039;-86
2023/11/22 00:51:15;;;;;;;10.15;7.22;;;;;;;;;;5055516;28;20037;-87
2023/11/22 00:53:41;;;;;;;10.30;6.65;;;;;;;;;;5066848;28;20039;-86
2023/11/22 00:56:06;;;;;;;9.27;7.05;;;;;;;;;;5054494;28;20037;-86
2023/11/22 00:58:32;;;;;;;12.70;7.18;;;;;;;;;;5066234;28;20108;-86
2023/11/22 01:00:58;;;;;;;11.85;7.40;;;;;;;;;;5054863;28;20104;-86
2023/11/22 01:03:23;;;;;;;11.00;7.50;;;;;;;;;;5053478;28;20029;-87
2023/11/22 01:05:50;;;;;;;10.68;7.35;;;;;;;;;;5050953;28;20075;-86
2023/11/22 01:08:16;;;;;;;9.65;7.07;;;;;;;;;;5050967;28;20101;-78
2023/11/22 01:10:45;;;;;;;11.00;7.35;;;;;;;;;;5082464;28;20115;-78
2023/11/22 01:13:11;;;;;;;12.65;8.27;;;;;;;;;;5062605;28;20121;-78
2023/11/22 01:15:37;;;;;;;11.60;8.10;;;;;;;;;;5068003;28;20033;-78
2023/11/22 01:18:02;;;;;;;12.93;7.75;;;;;;;;;;5063905;28;20040;-86
2023/11/22 01:20:28;;;;;;;12.25;8.13;;;;;;;;;;5052316;28;20384;-86
2023/11/22 01:22:53;;;;;;;11.20;7.45;;;;;;;;;;5080765;28;20029;-86
2023/11/22 01:25:19;;;;;;;12.60;8.00;;;;;;;;;;5061762;28;20032;-87
2023/11/22 01:27:45;;;;;;;11.52;8.15;;;;;;;;;;5054737;28;20036;-87
2023/11/22 01:30:11;;;;;;;11.57;7.88;;;;;;;;;;5062568;28;20049;-86
2023/11/22 01:32:37;;;;;;;12.02;7.38;;;;;;;;;;5050898;28;20033;-86
2023/11/22 01:35:05;;;;;;;11.13;7.18;;;;;;;;;;5066792;28;20039;-86
2023/11/22 01:37:32;;;;;;;12.60;7.18;;;;;;;;;;5060623;28;20036;-86
2023/11/22 01:39:57;;;;;;;9.85;6.93;;;;;;;;;;5099128;28;20048;-86
2023/11/22 01:42:23;;;;;;;12.10;7.57;;;;;;;;;;5052744;28;20040;-85
2023/11/22 01:44:50;;;;;;;9.98;6.85;;;;;;;;;;5061739;28;20456;-86
2023/11/22 01:47:17;;;;;;;12.98;7.30;;;;;;;;;;5063193;28;20036;-86
2023/11/22 01:49:43;;;;;;;11.30;7.30;;;;;;;;;;5065461;28;20032;-86
2023/11/22 01:52:08;;;;;;;9.88;6.65;;;;;;;;;;5079969;28;20128;-86
2023/11/22 01:54:34;;;;;;;9.70;6.72;;;;;;;;;;5099057;28;20056;-86
2023/11/22 01:57:01;;;;;;;10.63;6.90;;;;;;;;;;5064541;28;20037;-85
2023/11/22 01:59:29;;;;;;;11.52;7.10;;;;;;;;;;5060616;28;20032;-86
2023/11/22 02:01:55;;;;;;;10.38;6.72;;;;;;;;;;5063812;28;20032;-86
2023/11/22 02:04:20;;;;;;;10.60;6.93;;;;;;;;;;5066085;28;20028;-86
2023/11/22 02:06:47;;;;;;;11.00;7.43;;;;;;;;;;5067093;28;20024;-85
2023/11/22 02:09:15;;;;;;;10.50;7.25;;;;;;;;;;5051539;28;20025;-85
2023/11/22 02:11:42;;;;;;;10.55;6.88;;;;;;;;;;5061845;28;20028;-86
2023/11/22 02:14:08;;;;;;;11.20;7.10;;;;;;;;;;5064622;28;20039;-86
2023/11/22 02:16:35;;;;;;;10.27;7.13;;;;;;;;;;5051279;28;20047;-86
2023/11/22 02:19:00;;;;;;;11.63;7.18;;;;;;;;;;5038555;28;20032;-86
2023/11/22 02:21:26;;;;;;;11.13;6.90;;;;;;;;;;5050475;28;20040;-86
2023/11/22 02:23:51;;;;;;;9.50;6.53;;;;;;;;;;5060447;28;20067;-85
2023/11/22 02:26:20;;;;;;;10.38;6.78;;;;;;;;;;5094727;28;20036;-85
2023/11/22 02:28:45;;;;;;;10.48;6.90;;;;;;;;;;5066869;28;20099;-86
2023/11/22 02:31:11;;;;;;;9.52;5.95;;;;;;;;;;5062589;28;20141;-86
2023/11/22 02:33:36;;;;;;;8.85;6.60;;;;;;;;;;5062578;28;22267;-86
2023/11/22 02:36:02;;;;;;;11.95;7.13;;;;;;;;;;5063232;28;20040;-86
2023/11/22 02:38:28;;;;;;;9.35;6.53;;;;;;;;;;5063551;28;20434;-85
2023/11/22 02:40:54;;;;;;;10.82;7.07;;;;;;;;;;5067026;28;20024;-85
2023/11/22 02:43:20;;;;;;;10.85;7.57;;;;;;;;;;5061478;28;20112;-85
2023/11/22 02:45:46;;;;;;;10.25;7.13;;;;;;;;;;5081517;28;20113;-86
2023/11/22 02:48:13;;;;;;;11.07;7.00;;;;;;;;;;5048014;28;20056;-84
2023/11/22 02:50:39;;;;;;;10.15;6.30;;;;;;;;;;5058287;28;20032;-86
2023/11/22 02:53:04;;;;;;;10.40;6.85;;;;;;;;;;5086742;28;20025;-85
2023/11/22 02:55:30;;;;;;;10.57;7.03;;;;;;;;;;5092819;28;20041;-86
2023/11/22 02:57:55;;;;;;;10.52;7.07;;;;;;;;;;5076083;28;20383;-86
2023/11/22 03:00:21;;;;;;;10.32;7.05;;;;;;;;;;5080810;28;20040;-86
2023/11/22 03:02:47;;;;;;;10.60;7.05;;;;;;;;;;5046285;28;20037;-84
2023/11/22 03:05:16;;;;;;;11.70;6.93;;;;;;;;;;5065011;28;20163;-85
2023/11/22 03:07:42;;;;;;;9.82;6.63;;;;;;;;;;5058663;28;20024;-86
2023/11/22 03:10:08;;;;;;;9.60;6.47;;;;;;;;;;5059063;28;20376;-86
2023/11/22 03:12:34;;;;;;;10.38;6.70;;;;;;;;;;5030693;28;20110;-86
2023/11/22 03:15:01;;;;;;;10.23;6.97;;;;;;;;;;5056672;28;20048;-85
2023/11/22 03:17:28;;;;;;;10.00;6.47;;;;;;;;;;5054985;28;20040;-86
2023/11/22 03:19:56;;;;;;;10.52;7.07;;;;;;;;;;5061735;28;20065;-86
2023/11/22 03:22:26;;;;;;;9.52;6.57;;;;;;;;;;5060283;28;20033;-86
2023/11/22 03:24:52;;;;;;;9.40;6.75;;;;;;;;;;5041028;28;20142;-86
2023/11/22 03:27:18;;;;;;;9.40;6.55;;;;;;;;;;5044261;28;20079;-86
2023/11/22 03:29:44;;;;;;;9.98;6.63;;;;;;;;;;5062110;28;20405;-86
2023/11/22 03:32:11;;;;;;;9.80;6.65;;;;;;;;;;5058443;28;20500;-86
2023/11/22 03:34:36;;;;;;;12.40;7.05;;;;;;;;;;5055799;28;20032;-86
2023/11/22 03:37:02;;;;;;;11.70;6.80;;;;;;;;;;5048835;28;20034;-86
2023/11/22 03:39:27;;;;;;;11.18;6.90;;;;;;;;;;5046558;28;20136;-86
2023/11/22 03:41:53;;;;;;;9.70;6.93;;;;;;;;;;5046113;28;20119;-86
2023/11/22 03:44:18;;;;;;;9.13;6.72;;;;;;;;;;5074900;28;20060;-86
2023/11/22 03:46:43;;;;;;;11.18;7.00;;;;;;;;;;5062549;28;20035;-79
2023/11/22 03:49:09;;;;;;;10.65;7.15;;;;;;;;;;5073466;28;20111;-79
2023/11/22 03:51:36;;;;;;;10.48;6.85;;;;;;;;;;5057802;28;20052;-79
2023/11/22 03:54:02;;;;;;;9.35;6.68;;;;;;;;;;5064172;28;20522;-79
2023/11/22 03:56:28;;;;;;;9.90;6.47;;;;;;;;;;5079761;28;20036;-79
2023/11/22 03:58:54;;;;;;;9.65;6.72;;;;;;;;;;5073692;28;22212;-79
2023/11/22 04:01:20;;;;;;;10.35;6.95;;;;;;;;;;5063803;28;20507;-79
2023/11/22 04:03:48;;;;;;;9.90;6.47;;;;;;;;;;5046157;28;20064;-78
2023/11/22 04:06:16;;;;;;;10.23;6.20;;;;;;;;;;5077882;28;20033;-79
2023/11/22 04:08:46;;;;;;;9.07;6.35;;;;;;;;;;5059268;28;20087;-79
2023/11/22 04:11:12;;;;;;;9.40;6.25;;;;;;;;;;5063495;28;20029;-79
2023/11/22 04:13:38;;;;;;;9.23;6.43;;;;;;;;;;5057352;28;20020;-79
2023/11/22 04:16:08;;;;;;;11.38;6.88;;;;;;;;;;5063867;28;20029;-79
2023/11/22 04:18:35;;;;;;;10.10;6.13;;;;;;;;;;5049335;28;20068;-78
2023/11/22 04:21:01;;;;;;;10.10;6.47;;;;;;;;;;5064066;28;20020;-78
2023/11/22 04:23:26;;;;;;;11.93;7.38;;;;;;;;;;5063176;28;20490;-79
2023/11/22 04:25:51;;;;;;;8.77;6.28;;;;;;;;;;5057323;28;20456;-79
2023/11/22 04:28:17;;;;;;;11.07;6.60;;;;;;;;;;5048312;28;20461;-79
2023/11/22 04:30:43;;;;;;;10.55;7.15;;;;;;;;;;5059732;28;20020;-79
2023/11/22 04:33:08;;;;;;;12.45;7.05;;;;;;;;;;5060260;28;20639;-79
2023/11/22 04:35:36;;;;;;;10.85;6.63;;;;;;;;;;5047258;28;20471;-79
2023/11/22 04:38:03;;;;;;;10.68;6.78;;;;;;;;;;5050891;28;20123;-85
2023/11/22 04:40:29;;;;;;;9.68;6.45;;;;;;;;;;5060622;28;20127;-85
2023/11/22 04:42:54;;;;;;;9.52;6.30;;;;;;;;;;5044952;28;20123;-86
2023/11/22 04:45:20;;;;;;;10.27;6.53;;;;;;;;;;5055327;28;20029;-85
2023/11/22 04:47:45;;;;;;;10.15;6.80;;;;;;;;;;5050479;28;20055;-86
2023/11/22 04:50:12;;;;;;;9.65;6.65;;;;;;;;;;5037411;28;20390;-85
2023/11/22 04:52:38;;;;;;;10.63;6.75;;;;;;;;;;5050858;28;20033;-86
2023/11/22 04:55:04;;;;;;;9.68;6.20;;;;;;;;;;5061789;28;20033;-85
2023/11/22 04:57:31;;;;;;;9.27;6.20;;;;;;;;;;5060841;28;20044;-79
2023/11/22 04:59:57;;;;;;;12.57;6.43;;;;;;;;;;5056352;28;20468;-79
2023/11/22 05:02:22;;;;;;;9.45;6.40;;;;;;;;;;5063252;28;20025;-79
2023/11/22 05:04:48;;;;;;;9.63;6.20;;;;;;;;;;5062466;28;20032;-79
2023/11/22 05:07:18;;;;;;;10.38;6.38;;;;;;;;;;5057554;28;20029;-79
2023/11/22 05:09:44;;;;;;;10.52;6.65;;;;;;;;;;5073784;28;20037;-78
2023/11/22 05:12:11;;;;;;;9.02;6.43;;;;;;;;;;5046903;28;20525;-78
2023/11/22 05:14:37;;;;;;;11.25;7.20;;;;;;;;;;5053902;28;20042;-79
2023/11/22 05:17:02;;;;;;;11.00;7.15;;;;;;;;;;5058390;28;20036;-79
2023/11/22 05:19:27;;;;;;;11.07;7.35;;;;;;;;;;5059849;28;21369;-78
2023/11/22 05:21:53;;;;;;;9.77;6.93;;;;;;;;;;5057477;28;20431;-78
2023/11/22 05:24:19;;;;;;;10.75;7.15;;;;;;;;;;5049138;28;20089;-79
2023/11/22 05:26:46;;;;;;;11.50;7.28;;;;;;;;;;5059108;28;20032;-78
2023/11/22 05:29:11;;;;;;;10.90;6.82;;;;;;;;;;5045789;28;20371;-78
2023/11/22 05:31:39;;;;;;;10.15;6.90;;;;;;;;;;5043823;28;20086;-79
2023/11/22 05:34:05;;;;;;;11.02;6.97;;;;;;;;;;5063710;28;20445;-79
2023/11/22 05:36:30;;;;;;;11.95;7.20;;;;;;;;;;5060611;28;20479;-78
2023/11/22 05:38:58;;;;;;;11.50;7.10;;;;;;;;;;5064258;28;20508;-79
2023/11/22 05:41:25;;;;;;;10.50;6.90;;;;;;;;;;5061349;28;20044;-79
2023/11/22 05:43:54;;;;;;;12.23;7.43;;;;;;;;;;5061378;28;20056;-78
2023/11/22 05:46:24;;;;;;;10.38;7.05;;;;;;;;;;5063377;28;21458;-85
2023/11/22 05:48:56;;;;;;;9.90;6.90;;;;;;;;;;5064170;28;20028;-85
2023/11/22 05:51:21;;;;;;;14.27;7.50;;;;;;;;;;5060108;28;20029;-85
2023/11/22 05:53:47;;;;;;;10.60;6.80;;;;;;;;;;5059963;28;20036;-85
2023/11/22 05:56:13;;;;;;;12.85;7.28;;;;;;;;;;5056328;28;20032;-85
2023/11/22 05:58:39;;;;;;;10.48;6.90;;;;;;;;;;5062543;28;20043;-85
2023/11/22 06:01:05;;;;;;;11.23;7.63;;;;;;;;;;5063608;28;20380;-85
2023/11/22 06:03:31;;;;;;;11.48;7.50;;;;;;;;;;5061257;28;20478;-85
2023/11/22 06:06:00;;;;;;;12.30;7.78;;;;;;;;;;5062509;28;20039;-85
2023/11/22 06:08:25;;;;;;;11.00;7.35;;;;;;;;;;5060670;28;20067;-78
2023/11/22 06:10:52;;;;;;;12.35;7.93;;;;;;;;;;5062659;28;20060;-78
2023/11/22 06:13:18;;;;;;;12.75;7.93;;;;;;;;;;5051376;28;20028;-78
2023/11/22 06:15:45;;;;;;;12.65;7.43;;;;;;;;;;5060868;28;20452;-79
2023/11/22 06:18:10;;;;;;;12.07;7.78;;;;;;;;;;5063751;28;20028;-78
2023/11/22 06:20:38;;;;;;;12.40;7.65;;;;;;;;;;5061737;28;20033;-78
2023/11/22 06:23:05;;;;;;;11.77;7.72;;;;;;;;;;5058696;28;20424;-78
2023/11/22 06:25:31;;;;;;;12.63;7.45;;;;;;;;;;5058579;28;20028;-79
2023/11/22 06:27:56;;;;;;;11.75;7.43;;;;;;;;;;5059614;28;20889;-78
2023/11/22 06:30:23;;;;;;;12.10;7.72;;;;;;;;;;5061082;28;20129;-79
2023/11/22 06:32:48;;;;;;;12.68;7.28;;;;;;;;;;5060257;28;20044;-78
2023/11/22 06:35:17;;;;;;;12.02;7.70;;;;;;;;;;5071307;28;20041;-78
2023/11/22 06:37:44;;;;;;;12.90;8.23;;;;;;;;;;5059734;28;20024;-78
2023/11/22 06:40:14;;;;;;;11.05;7.40;;;;;;;;;;5062716;28;20056;-78
2023/11/22 06:42:41;;;;;;;12.13;7.60;;;;;;;;;;5059412;28;20037;-78
2023/11/22 06:45:09;;;;;;;12.48;7.75;;;;;;;;;;5061491;28;20071;-78
2023/11/22 06:47:36;;;;;;;12.27;7.45;;;;;;;;;;5060621;28;20031;-78
2023/11/22 06:50:08;;;;;;;13.02;7.45;;;;;;;;;;5062507;28;20063;-78
2023/11/22 06:52:38;;;;;;;12.93;7.97;;;;;;;;;;5059430;28;20113;-78
2023/11/22 06:55:07;;;;;;;12.90;8.23;;;;;;;;;;5060713;28;20035;-78
2023/11/22 06:57:33;;;;;;;12.23;7.35;;;;;;;;;;5061145;28;20051;-79
2023/11/22 07:00:01;;;;;;;11.13;7.57;;;;;;;;;;5060431;28;20060;-79
2023/11/22 07:02:28;;;;;;;11.82;7.50;;;;;;;;;;5059028;28;20375;-78
2023/11/22 07:04:54;;;;;;;12.85;8.25;;;;;;;;;;5092222;27;20031;-78
2023/11/22 07:07:19;;;;;;;13.40;7.82;;;;;;;;;;5057684;28;20059;-78
2023/11/22 07:09:46;;;;;;;13.35;8.35;;;;;;;;;;5066446;28;20396;-78
2023/11/22 07:12:11;;;;;;;13.38;8.43;;;;;;;;;;5057359;28;20029;-78
2023/11/22 07:14:38;;;;;;;11.95;7.97;;;;;;;;;;5064644;28;20049;-78
2023/11/22 07:17:07;;;;;;;12.18;8.02;;;;;;;;;;5062765;28;20035;-86
2023/11/22 07:19:37;;;;;;;12.68;8.32;;;;;;;;;;5044988;28;20043;-86
2023/11/22 07:22:15;;;;;;;13.90;8.27;;;;;;;;;;5074664;28;20036;-87
2023/11/22 07:24:43;;;;;;;13.02;7.38;;;;;;;;;;5078497;28;20029;-86
2023/11/22 07:27:12;;;;;;;14.65;8.38;;;;;;;;;;5065574;28;20033;-86
2023/11/22 07:29:40;;;;;;;13.60;8.80;;;;;;;;;;5068756;28;20051;-86
2023/11/22 07:32:06;;;;;;;12.52;8.15;;;;;;;;;;5051164;28;20111;-86
2023/11/22 07:34:31;;;;;;;14.88;8.75;;;;;;;;;;5078329;28;20124;-86
2023/11/22 07:36:56;;;;;;;14.43;8.25;;;;;;;;;;5064741;28;20032;-85
2023/11/22 07:39:27;;;;;;;16.23;8.90;;;;;;;;;;5051123;28;20028;-86
2023/11/22 07:41:53;;;;;;;12.95;8.38;;;;;;;;;;5051779;28;20141;-85
2023/11/22 07:44:18;;;;;;;14.13;8.52;;;;;;;;;;5070121;28;20547;-86
2023/11/22 07:46:46;;;;;;;13.25;8.48;;;;;;;;;;5043363;28;20035;-86
2023/11/22 07:49:13;;;;;;;13.68;8.57;;;;;;;;;;5050308;28;20032;-86
2023/11/22 07:51:39;;;;;;;15.18;8.80;;;;;;;;;;5054245;28;20101;-86
2023/11/22 07:54:05;;;;;;;13.95;8.20;;;;;;;;;;5035254;28;20441;-86
2023/11/22 07:56:32;;;;;;;14.63;8.50;;;;;;;;;;5062940;28;20035;-86
2023/11/22 07:58:58;;;;;;;16.45;8.52;;;;;;;;;;5063549;28;20037;-86
2023/11/22 08:01:25;;;;;;;14.50;8.90;;;;;;;;;;5065788;28;20053;-86
2023/11/22 08:03:51;;;;;;;15.98;8.98;;;;;;;;;;5063074;28;20477;-86
2023/11/22 08:06:17;;;;;;;15.48;9.70;;;;;;;;;;5049248;28;20040;-79
2023/11/22 08:08:45;;;;;;;14.68;8.20;;;;;;;;;;5097319;28;20039;-78
2023/11/22 08:11:14;;;;;;;15.32;9.73;;;;;;;;;;5063385;28;20078;-78
2023/11/22 08:13:44;;;;;;;14.68;8.55;;;;;;;;;;5051682;28;20082;-79
2023/11/22 08:16:10;;;;;;;14.10;8.65;;;;;;;;;;5080955;28;20441;-78
2023/11/22 08:18:36;;;;;;;15.10;9.32;;;;;;;;;;5049520;28;20059;-77
2023/11/22 08:21:02;;;;;;;14.02;8.75;;;;;;;;;;5048710;28;20131;-78
2023/11/22 08:23:30;;;;;;;13.82;8.93;;;;;;;;;;5056979;28;20079;-78
2023/11/22 08:25:56;;;;;;;16.27;9.15;;;;;;;;;;5030079;28;20212;-77
2023/11/22 08:28:23;;;;;;;14.48;8.50;;;;;;;;;;5048280;28;20067;-78
2023/11/22 08:30:51;;;;;;;14.60;8.75;;;;;;;;;;5064805;28;20120;-78
2023/11/22 08:33:16;;;;;;;15.32;9.15;;;;;;;;;;5063254;28;20028;-78
2023/11/22 08:35:43;;;;;;;15.57;9.48;;;;;;;;;;5071216;28;20036;-78
2023/11/22 08:38:09;;;;;;;16.98;9.13;;;;;;;;;;5065578;28;20060;-78
2023/11/22 08:40:37;;;;;;;13.95;8.82;;;;;;;;;;5065174;28;20435;-78
2023/11/22 08:43:04;;;;;;;15.40;9.50;;;;;;;;;;5067122;28;20497;-78
2023/11/22 08:45:31;;;;;;;15.55;9.57;;;;;;;;;;5065361;28;20044;-77
2023/11/22 08:47:57;;;;;;;15.82;9.80;;;;;;;;;;5053098;28;20032;-78
2023/11/22 08:50:22;;;;;;;15.57;9.63;;;;;;;;;;5084567;28;20052;-78
2023/11/22 08:52:52;;;;;;;15.27;9.13;;;;;;;;;;5048582;28;20259;-78
2023/11/22 08:55:21;;;;;;;16.67;10.02;;;;;;;;;;5093591;27;20482;-78
2023/11/22 08:57:48;;;;;;;14.82;8.75;;;;;;;;;;5066972;28;20085;-78
2023/11/22 09:00:14;;;;;;;15.57;9.52;;;;;;;;;;5068755;28;20033;-77
2023/11/22 09:02:40;;;;;;;15.10;9.35;;;;;;;;;;5051743;28;20040;-78
2023/11/22 09:05:12;;;;;;;14.63;8.98;;;;;;;;;;5063830;28;20037;-78
2023/11/22 09:07:39;;;;;;;13.60;8.60;;;;;;;;;;5049395;28;20036;-78
2023/11/22 09:10:09;;;;;;;14.65;8.82;;;;;;;;;;5050176;28;20044;-78
2023/11/22 09:12:36;;;;;;;17.95;9.60;;;;;;;;;;5065449;28;20024;-78
2023/11/22 09:15:03;;;;;;;15.95;9.05;;;;;;;;;;5056402;28;20119;-77
2023/11/22 09:17:29;;;;;;;17.20;10.15;;;;;;;;;;5056910;28;20029;-86
2023/11/22 09:19:56;;;;;;;16.48;9.77;;;;;;;;;;5058724;28;20032;-86
2023/11/22 09:22:21;;;;;;;18.55;10.95;;;;;;;;;;5051432;28;20036;-86
2023/11/22 09:24:46;;;;;;;17.20;10.63;;;;;;;;;;5043028;28;20114;-87
2023/11/22 09:27:16;;;;;;;18.15;10.65;;;;;;;;;;5064363;28;20036;-86
2023/11/22 09:29:41;;;;;;;19.80;10.10;;;;;;;;;;5060032;28;20036;-86
2023/11/22 09:32:07;;;;;;;18.00;10.43;;;;;;;;;;5053881;28;20036;-86
2023/11/22 09:34:32;;;;;;;17.30;9.32;;;;;;;;;;5073856;28;20446;-86
2023/11/22 09:36:58;;;;;;;17.48;10.25;;;;;;;;;;5073951;28;20055;-87
2023/11/22 09:39:24;;;;;;;18.00;10.45;;;;;;;;;;5075398;28;20111;-86
2023/11/22 09:41:51;;;;;;;17.98;10.23;;;;;;;;;;5073329;28;20126;-86
2023/11/22 09:44:17;;;;;;;18.05;10.77;;;;;;;;;;5058146;28;20043;-87
2023/11/22 09:46:43;;;;;;;18.88;10.82;;;;;;;;;;5062069;28;20044;-86
2023/11/22 09:49:13;;;;;;;20.17;11.75;;;;;;;;;;5064272;28;20029;-87
2023/11/22 09:51:41;;;;;;;20.52;10.93;;;;;;;;;;5068049;28;20052;-87
2023/11/22 09:54:11;;;;;;;20.33;11.23;;;;;;;;;;5095088;28;20040;-87
2023/11/22 09:56:38;;;;;;;24.17;13.40;;;;;;;;;;5065831;28;20036;-87
2023/11/22 09:59:06;;;;;;;24.35;13.43;;;;;;;;;;5072620;28;20054;-87
2023/11/22 10:01:36;;;;;;;23.67;12.73;;;;;;;;;;5071057;28;20403;-87
2023/11/22 10:04:05;;;;;;;28.58;14.27;;;;;;;;;;5070243;28;20032;-88
2023/11/22 10:06:34;;;;;;;28.05;14.80;;;;;;;;;;5069222;28;20055;-87
2023/11/22 10:09:07;;;;;;;30.63;16.73;;;;;;;;;;5051622;28;20032;-88
2023/11/22 10:11:35;;;;;;;45.88;22.98;;;;;;;;;;5068656;28;20123;-87
2023/11/22 10:14:00;;;;;;;40.08;20.17;;;;;;;;;;5055740;28;20123;-88
2023/11/22 10:16:26;;;;;;;37.55;19.00;;;;;;;;;;5055521;28;20456;-88
2023/11/22 10:18:51;;;;;;;38.35;17.95;;;;;;;;;;5048039;28;20449;-87
2023/11/22 10:21:22;;;;;;;37.50;19.13;;;;;;;;;;5057537;28;20042;-87
2023/11/22 10:23:48;;;;;;;38.83;19.23;;;;;;;;;;5073066;28;20090;-88
2023/11/22 10:26:15;;;;;;;43.78;21.58;;;;;;;;;;5057090;28;20036;-78
2023/11/22 10:28:43;;;;;;;41.10;20.38;;;;;;;;;;5058606;28;20483;-87
2023/11/22 10:31:09;;;;;;;44.20;20.23;;;;;;;;;;5101577;27;20037;-87
2023/11/22 10:33:39;;;;;;;42.95;19.73;;;;;;;;;;5066634;28;20036;-87
2023/11/22 10:36:07;;;;;;;43.28;18.92;;;;;;;;;;5056371;28;20127;-88
2023/11/22 10:38:34;;;;;;;43.17;19.90;;;;;;;;;;5060433;28;20090;-87
2023/11/22 10:41:01;;;;;;;49.33;21.73;;;;;;;;;;5055973;28;20032;-88
2023/11/22 10:43:32;;;;;;;46.60;21.40;;;;;;;;;;5056078;28;20028;-87
2023/11/22 10:45:58;;;;;;;51.83;20.90;;;;;;;;;;5066736;28;20093;-87
2023/11/22 10:48:24;;;;;;;53.63;22.67;;;;;;;;;;5071654;28;20381;-88
2023/11/22 10:50:54;;;;;;;52.63;22.33;;;;;;;;;;5068280;28;20192;-89
2023/11/22 10:53:35;;;;;;;55.85;22.45;;;;;;;;;;5052697;28;20033;-89
2023/11/22 10:56:15;;;;;;;54.72;23.13;;;;;;;;;;5063268;28;20021;-89
2023/11/22 10:58:52;;;;;;;54.13;22.00;;;;;;;;;;5071327;28;20043;-88
2023/11/22 11:01:19;;;;;;;48.50;21.70;;;;;;;;;;5063945;28;20493;-88
2023/11/22 11:04:06;;;;;;;47.70;20.80;;;;;;;;;;5070482;28;20074;-89
2023/11/22 11:06:34;;;;;;;48.03;19.88;;;;;;;;;;5072167;28;20090;-89
2023/11/22 11:09:01;;;;;;;49.00;20.27;;;;;;;;;;5072670;28;20080;-88
2023/11/22 11:11:30;;;;;;;42.75;19.00;;;;;;;;;;5070097;28;20052;-89
2023/11/22 11:13:56;;;;;;;46.75;19.70;;;;;;;;;;5041623;28;20086;-87
2023/11/22 11:16:23;;;;;;;45.15;19.70;;;;;;;;;;5053510;28;20044;-87
2023/11/22 11:18:49;;;;;;;43.47;20.33;;;;;;;;;;5055600;28;20025;-87
2023/11/22 11:21:15;;;;;;;42.50;20.08;;;;;;;;;;5049780;28;20167;-88
2023/11/22 11:23:41;;;;;;;38.58;19.52;;;;;;;;;;5068928;28;20115;-88
2023/11/22 11:26:21;;;;;;;39.55;18.45;;;;;;;;;;5041822;28;20516;-89
2023/11/22 11:28:49;;;;;;;39.85;19.75;;;;;;;;;;5045113;28;20028;-88
2023/11/22 11:31:16;;;;;;;37.33;18.15;;;;;;;;;;5065545;28;20547;-88
2023/11/22 11:33:47;;;;;;;34.83;17.42;;;;;;;;;;5067889;28;20029;-88
2023/11/22 11:36:25;;;;;;;36.45;18.27;;;;;;;;;;5071174;28;20024;-78
2023/11/22 11:38:57;;;;;;;33.90;17.45;;;;;;;;;;5067323;28;20509;-87
2023/11/22 11:41:28;;;;;;;33.75;16.95;;;;;;;;;;5065914;28;20036;-87
2023/11/22 11:43:55;;;;;;;39.75;18.83;;;;;;;;;;5064165;28;20331;-87
2023/11/22 11:46:22;;;;;;;37.75;17.75;;;;;;;;;;5071085;28;20036;-88
2023/11/22 11:48:52;;;;;;;34.25;17.00;;;;;;;;;;5059503;28;20033;-87
2023/11/22 11:51:22;;;;;;;34.13;16.98;;;;;;;;;;5064708;28;20035;-87
2023/11/22 11:53:48;;;;;;;34.47;17.15;;;;;;;;;;5054351;28;20147;-87
2023/11/22 11:56:15;;;;;;;34.03;17.60;;;;;;;;;;5079325;28;20024;-88
2023/11/22 11:58:51;;;;;;;32.22;16.77;;;;;;;;;;5067551;28;20147;-87
2023/11/22 12:01:20;;;;;;;36.03;17.45;;;;;;;;;;5063177;28;20025;-88
2023/11/22 12:03:45;;;;;;;32.10;16.27;;;;;;;;;;5054109;28;20120;-87
2023/11/22 12:06:16;;;;;;;29.05;14.75;;;;;;;;;;5068700;28;20112;-88
2023/11/22 12:08:41;;;;;;;34.33;16.98;;;;;;;;;;5068809;28;20028;-88
2023/11/22 12:11:08;;;;;;;30.92;16.75;;;;;;;;;;5068710;28;20534;-88
2023/11/22 12:13:34;;;;;;;29.25;14.98;;;;;;;;;;5060569;28;20032;-88
2023/11/22 12:16:05;;;;;;;30.80;16.23;;;;;;;;;;5057404;28;20032;-88
2023/11/22 12:18:45;;;;;;;30.02;15.30;;;;;;;;;;5108839;28;20093;-87
2023/11/22 12:21:14;;;;;;;30.90;16.55;;;;;;;;;;5084320;28;20048;-88
2023/11/22 12:23:41;;;;;;;27.77;14.77;;;;;;;;;;5061278;28;20417;-87
2023/11/22 12:26:15;;;;;;;33.00;16.85;;;;;;;;;;5076923;28;20036;-87
2023/11/22 12:28:41;;;;;;;29.35;16.13;;;;;;;;;;5068368;28;20036;-87
2023/11/22 12:31:11;;;;;;;28.52;15.02;;;;;;;;;;5053932;28;20044;-88
2023/11/22 12:33:36;;;;;;;26.98;14.30;;;;;;;;;;5074130;28;20028;-87
2023/11/22 12:36:06;;;;;;;25.75;14.35;;;;;;;;;;5053814;28;20051;-87
2023/11/22 12:38:34;;;;;;;31.52;15.05;;;;;;;;;;5072168;28;20174;-88
2023/11/22 12:41:01;;;;;;;29.85;15.25;;;;;;;;;;5073309;28;20020;-88
2023/11/22 12:43:26;;;;;;;31.02;15.20;;;;;;;;;;5055268;28;20035;-88
2023/11/22 12:46:00;;;;;;;29.95;15.98;;;;;;;;;;5069906;28;20024;-88
2023/11/22 12:48:29;;;;;;;32.67;15.93;;;;;;;;;;5074692;28;20020;-76
2023/11/22 12:50:55;;;;;;;32.50;15.70;;;;;;;;;;5071798;28;20023;-77
2023/11/22 12:53:21;;;;;;;32.63;15.60;;;;;;;;;;5072494;28;20024;-76
2023/11/22 12:55:51;;;;;;;35.42;17.48;;;;;;;;;;5055918;28;20395;-77
2023/11/22 12:58:17;;;;;;;29.63;15.02;;;;;;;;;;5064556;28;20033;-78
2023/11/22 13:00:48;;;;;;;31.40;15.70;;;;;;;;;;5063655;28;20406;-77
2023/11/22 13:03:14;;;;;;;29.35;14.32;;;;;;;;;;5052776;28;20032;-77
2023/11/22 13:05:44;;;;;;;34.53;15.27;;;;;;;;;;5077145;28;20086;-77
2023/11/22 13:08:13;;;;;;;35.15;16.52;;;;;;;;;;5055946;28;20028;-87
2023/11/22 13:10:58;;;;;;;32.75;15.13;;;;;;;;;;5071245;28;20025;-87
2023/11/22 13:13:27;;;;;;;33.00;15.85;;;;;;;;;;5074517;28;20025;-88
2023/11/22 13:15:53;;;;;;;32.55;16.02;;;;;;;;;;5076158;28;20077;-88
2023/11/22 13:18:21;;;;;;;37.88;16.67;;;;;;;;;;5074240;28;20033;-87
2023/11/22 13:20:46;;;;;;;31.30;14.35;;;;;;;;;;5072122;28;20020;-87
2023/11/22 13:23:13;;;;;;;31.27;14.85;;;;;;;;;;5072250;28;20089;-87
2023/11/22 13:25:41;;;;;;;29.58;14.52;;;;;;;;;;5069099;28;20028;-88
2023/11/22 13:28:06;;;;;;;31.65;15.43;;;;;;;;;;5073767;28;20020;-87
2023/11/22 13:30:32;;;;;;;31.92;14.90;;;;;;;;;;5073107;28;20089;-88
2023/11/22 13:32:58;;;;;;;35.45;15.40;;;;;;;;;;5072261;28;20081;-88
2023/11/22 13:35:24;;;;;;;27.60;14.23;;;;;;;;;;5071681;28;20032;-88
2023/11/22 13:38:10;;;;;;;26.10;14.20;;;;;;;;;;5083743;28;20029;-88
2023/11/22 13:40:39;;;;;;;29.50;14.38;;;;;;;;;;5067644;28;20039;-89
2023/11/22 13:43:05;;;;;;;28.88;14.27;;;;;;;;;;5074029;28;20039;-88
2023/11/22 13:45:30;;;;;;;30.45;15.60;;;;;;;;;;5070050;28;20037;-88
2023/11/22 13:48:03;;;;;;;29.98;14.80;;;;;;;;;;5053230;28;20025;-88
2023/11/22 13:50:29;;;;;;;31.77;15.20;;;;;;;;;;5056620;28;20078;-88
2023/11/22 13:52:56;;;;;;;28.00;14.18;;;;;;;;;;5072167;28;20042;-88
2023/11/22 13:55:25;;;;;;;30.55;15.15;;;;;;;;;;5070901;28;20078;-88
2023/11/22 13:57:51;;;;;;;28.70;14.63;;;;;;;;;;5055027;28;20449;-87
2023/11/22 14:00:22;;;;;;;32.72;17.00;;;;;;;;;;5074882;28;20048;-87
2023/11/22 14:02:51;;;;;;;31.02;15.18;;;;;;;;;;5074231;28;20028;-88
2023/11/22 14:05:16;;;;;;;28.17;15.85;;;;;;;;;;5065882;28;20033;-88
2023/11/22 14:07:43;;;;;;;29.10;15.02;;;;;;;;;;5049900;28;20036;-88
2023/11/22 14:10:10;;;;;;;30.67;15.27;;;;;;;;;;5073148;28;20024;-87
2023/11/22 14:12:36;;;;;;;28.42;15.65;;;;;;;;;;5068363;28;20024;-87
2023/11/22 14:15:04;;;;;;;28.10;14.77;;;;;;;;;;5072740;28;20482;-87
2023/11/22 14:17:30;;;;;;;31.15;16.80;;;;;;;;;;5071317;28;20078;-89
2023/11/22 14:19:56;;;;;;;29.30;15.90;;;;;;;;;;5064228;28;20037;-87
2023/11/22 14:22:22;;;;;;;25.90;14.05;;;;;;;;;;5060330;28;20028;-88
2023/11/22 14:24:51;;;;;;;26.75;14.07;;;;;;;;;;5075595;28;20067;-87